Clarks Fork, Missouri
Current Conditions -  °F | °C
As of 4:55 AM on Saturday 25 Oct 2014 (Local Time) from KVER Reporting Station
Clear Clear  
Wind Chill: 61°   Ceiling: Unl
Heat Index: 61°   Visibility: 10mi
Dew Point: 61°   Wind: 0mph
Humidity: 98%   Direction: NA
Pressure: 30"   Gusts: NA
Location:  38.8814°N, 92.7602°W
Report Text: KVER 250955Z AUTO 00000KT 10SM CLR 16/16 A3000 RMK AO2 T01620159
Loading
Personal Weather Stations






























Interactive Weather Map
Tropical Storm Tracking
New forecast layout! Learn more

10-Day Weather Forecast

Advertisements
Track Severe Weather on mobile